sensor_id;sensor_type;location;lat;lon;timestamp;P1;durP1;ratioP1;P2;durP2;ratioP2
52432;SDS011;38352;53.244;6.594;2023-11-22T00:01:02;16.38;;;7.78;;
52432;SDS011;38352;53.244;6.594;2023-11-22T00:03:29;16.13;;;8.93;;
52432;SDS011;38352;53.244;6.594;2023-11-22T00:05:55;15.80;;;7.93;;
52432;SDS011;38352;53.244;6.594;2023-11-22T00:08:21;13.65;;;7.50;;
52432;SDS011;38352;53.244;6.594;2023-11-22T00:10:47;13.30;;;6.95;;
52432;SDS011;38352;53.244;6.594;2023-11-22T00:13:13;12.73;;;8.40;;
52432;SDS011;38352;53.244;6.594;2023-11-22T00:15:39;12.43;;;7.40;;
52432;SDS011;38352;53.244;6.594;2023-11-22T00:18:05;13.50;;;7.70;;
52432;SDS011;38352;53.244;6.594;2023-11-22T00:20:31;15.10;;;7.45;;
52432;SDS011;38352;53.244;6.594;2023-11-22T00:23:01;14.43;;;7.85;;
52432;SDS011;38352;53.244;6.594;2023-11-22T00:25:28;16.73;;;7.90;;
52432;SDS011;38352;53.244;6.594;2023-11-22T00:27:55;12.02;;;7.38;;
52432;SDS011;38352;53.244;6.594;2023-11-22T00:30:21;12.95;;;7.50;;
52432;SDS011;38352;53.244;6.594;2023-11-22T00:32:48;14.27;;;7.97;;
52432;SDS011;38352;53.244;6.594;2023-11-22T00:35:14;11.93;;;6.88;;
52432;SDS011;38352;53.244;6.594;2023-11-22T00:37:40;14.93;;;7.32;;
52432;SDS011;38352;53.244;6.594;2023-11-22T00:40:06;16.45;;;8.55;;
52432;SDS011;38352;53.244;6.594;2023-11-22T00:42:36;13.88;;;7.93;;
52432;SDS011;38352;53.244;6.594;2023-11-22T00:45:04;16.17;;;8.80;;
52432;SDS011;38352;53.244;6.594;2023-11-22T00:47:32;16.10;;;8.27;;
52432;SDS011;38352;53.244;6.594;2023-11-22T00:49:58;12.20;;;7.63;;
52432;SDS011;38352;53.244;6.594;2023-11-22T00:52:24;17.20;;;8.27;;
52432;SDS011;38352;53.244;6.594;2023-11-22T00:54:50;14.10;;;7.07;;
52432;SDS011;38352;53.244;6.594;2023-11-22T00:57:16;15.93;;;8.23;;
52432;SDS011;38352;53.244;6.594;2023-11-22T00:59:42;15.10;;;7.53;;
52432;SDS011;38352;53.244;6.594;2023-11-22T01:02:08;12.15;;;7.65;;
52432;SDS011;38352;53.244;6.594;2023-11-22T01:04:35;14.52;;;7.55;;
52432;SDS011;38352;53.244;6.594;2023-11-22T01:07:02;14.25;;;6.72;;
52432;SDS011;38352;53.244;6.594;2023-11-22T01:09:30;13.48;;;7.63;;
52432;SDS011;38352;53.244;6.594;2023-11-22T01:11:57;13.48;;;7.47;;
52432;SDS011;38352;53.244;6.594;2023-11-22T01:14:23;15.15;;;7.53;;
52432;SDS011;38352;53.244;6.594;2023-11-22T01:16:49;15.93;;;7.70;;
52432;SDS011;38352;53.244;6.594;2023-11-22T01:19:15;13.48;;;8.05;;
52432;SDS011;38352;53.244;6.594;2023-11-22T01:21:42;13.95;;;7.88;;
52432;SDS011;38352;53.244;6.594;2023-11-22T01:24:08;15.07;;;7.82;;
52432;SDS011;38352;53.244;6.594;2023-11-22T01:26:34;13.18;;;7.18;;
52432;SDS011;38352;53.244;6.594;2023-11-22T01:29:00;12.52;;;7.13;;
52432;SDS011;38352;53.244;6.594;2023-11-22T01:31:27;16.25;;;7.32;;
52432;SDS011;38352;53.244;6.594;2023-11-22T01:33:53;13.65;;;7.07;;
52432;SDS011;38352;53.244;6.594;2023-11-22T01:36:20;10.63;;;6.15;;
52432;SDS011;38352;53.244;6.594;2023-11-22T01:38:46;15.05;;;7.45;;
52432;SDS011;38352;53.244;6.594;2023-11-22T01:41:12;14.95;;;7.05;;
52432;SDS011;38352;53.244;6.594;2023-11-22T01:43:41;15.88;;;7.47;;
52432;SDS011;38352;53.244;6.594;2023-11-22T01:46:10;14.10;;;7.13;;
52432;SDS011;38352;53.244;6.594;2023-11-22T01:48:40;14.80;;;7.15;;
52432;SDS011;38352;53.244;6.594;2023-11-22T01:51:06;13.82;;;7.15;;
52432;SDS011;38352;53.244;6.594;2023-11-22T01:53:33;15.88;;;7.80;;
52432;SDS011;38352;53.244;6.594;2023-11-22T01:56:03;13.10;;;7.15;;
52432;SDS011;38352;53.244;6.594;2023-11-22T01:58:29;11.73;;;7.18;;
52432;SDS011;38352;53.244;6.594;2023-11-22T02:00:55;14.80;;;8.18;;
52432;SDS011;38352;53.244;6.594;2023-11-22T02:03:23;16.25;;;7.75;;
52432;SDS011;38352;53.244;6.594;2023-11-22T02:05:50;15.77;;;8.05;;
52432;SDS011;38352;53.244;6.594;2023-11-22T02:08:17;17.23;;;7.78;;
52432;SDS011;38352;53.244;6.594;2023-11-22T02:10:44;15.05;;;7.78;;
52432;SDS011;38352;53.244;6.594;2023-11-22T02:13:12;15.48;;;7.53;;
52432;SDS011;38352;53.244;6.594;2023-11-22T02:15:38;13.48;;;6.25;;
52432;SDS011;38352;53.244;6.594;2023-11-22T02:18:07;12.90;;;7.18;;
52432;SDS011;38352;53.244;6.594;2023-11-22T02:20:33;13.52;;;6.82;;
52432;SDS011;38352;53.244;6.594;2023-11-22T02:23:07;13.52;;;7.50;;
52432;SDS011;38352;53.244;6.594;2023-11-22T02:25:37;12.40;;;6.65;;
52432;SDS011;38352;53.244;6.594;2023-11-22T02:28:03;14.02;;;7.65;;
52432;SDS011;38352;53.244;6.594;2023-11-22T02:30:29;20.42;;;6.68;;
52432;SDS011;38352;53.244;6.594;2023-11-22T02:32:56;13.45;;;7.10;;
52432;SDS011;38352;53.244;6.594;2023-11-22T02:35:22;13.98;;;7.35;;
52432;SDS011;38352;53.244;6.594;2023-11-22T02:37:48;14.63;;;7.45;;
52432;SDS011;38352;53.244;6.594;2023-11-22T02:42:41;13.10;;;7.50;;
52432;SDS011;38352;53.244;6.594;2023-11-22T02:45:08;13.52;;;7.45;;
52432;SDS011;38352;53.244;6.594;2023-11-22T02:47:34;12.55;;;7.47;;
52432;SDS011;38352;53.244;6.594;2023-11-22T02:50:03;13.88;;;6.75;;
52432;SDS011;38352;53.244;6.594;2023-11-22T02:52:30;15.38;;;7.40;;
52432;SDS011;38352;53.244;6.594;2023-11-22T02:54:57;13.10;;;7.05;;
52432;SDS011;38352;53.244;6.594;2023-11-22T02:57:23;14.48;;;7.15;;
52432;SDS011;38352;53.244;6.594;2023-11-22T02:59:49;14.57;;;7.63;;
52432;SDS011;38352;53.244;6.594;2023-11-22T03:02:15;13.43;;;7.18;;
52432;SDS011;38352;53.244;6.594;2023-11-22T03:04:42;13.45;;;7.80;;
52432;SDS011;38352;53.244;6.594;2023-11-22T03:07:08;15.15;;;8.15;;
52432;SDS011;38352;53.244;6.594;2023-11-22T03:09:35;13.88;;;7.45;;
52432;SDS011;38352;53.244;6.594;2023-11-22T03:12:01;15.32;;;8.60;;
52432;SDS011;38352;53.244;6.594;2023-11-22T03:14:28;14.18;;;7.30;;
52432;SDS011;38352;53.244;6.594;2023-11-22T03:16:57;16.88;;;8.27;;
52432;SDS011;38352;53.244;6.594;2023-11-22T03:19:23;15.43;;;7.15;;
52432;SDS011;38352;53.244;6.594;2023-11-22T03:21:49;16.60;;;7.53;;
52432;SDS011;38352;53.244;6.594;2023-11-22T03:24:15;15.45;;;7.28;;
52432;SDS011;38352;53.244;6.594;2023-11-22T03:26:42;11.65;;;6.68;;
52432;SDS011;38352;53.244;6.594;2023-11-22T03:29:09;14.93;;;7.03;;
52432;SDS011;38352;53.244;6.594;2023-11-22T03:31:35;14.25;;;7.43;;
52432;SDS011;38352;53.244;6.594;2023-11-22T03:34:01;13.73;;;7.95;;
52432;SDS011;38352;53.244;6.594;2023-11-22T03:36:27;14.20;;;7.40;;
52432;SDS011;38352;53.244;6.594;2023-11-22T03:38:54;15.82;;;8.00;;
52432;SDS011;38352;53.244;6.594;2023-11-22T03:41:20;17.98;;;7.63;;
52432;SDS011;38352;53.244;6.594;2023-11-22T03:43:46;13.30;;;7.30;;
52432;SDS011;38352;53.244;6.594;2023-11-22T03:46:12;12.38;;;7.18;;
52432;SDS011;38352;53.244;6.594;2023-11-22T03:48:38;13.52;;;6.95;;
52432;SDS011;38352;53.244;6.594;2023-11-22T03:51:04;12.65;;;6.75;;
52432;SDS011;38352;53.244;6.594;2023-11-22T03:53:30;14.57;;;7.22;;
52432;SDS011;38352;53.244;6.594;2023-11-22T03:55:57;13.55;;;7.35;;
52432;SDS011;38352;53.244;6.594;2023-11-22T03:58:23;14.50;;;6.65;;
52432;SDS011;38352;53.244;6.594;2023-11-22T04:00:51;14.50;;;7.55;;
52432;SDS011;38352;53.244;6.594;2023-11-22T04:03:17;15.90;;;7.63;;
52432;SDS011;38352;53.244;6.594;2023-11-22T04:05:44;13.68;;;7.13;;
52432;SDS011;38352;53.244;6.594;2023-11-22T04:08:10;14.55;;;6.55;;
52432;SDS011;38352;53.244;6.594;2023-11-22T04:10:36;11.80;;;6.40;;
52432;SDS011;38352;53.244;6.594;2023-11-22T04:13:02;16.20;;;7.15;;
52432;SDS011;38352;53.244;6.594;2023-11-22T04:15:29;15.80;;;7.57;;
52432;SDS011;38352;53.244;6.594;2023-11-22T04:17:56;14.57;;;6.78;;
52432;SDS011;38352;53.244;6.594;2023-11-22T04:20:22;14.63;;;6.97;;
52432;SDS011;38352;53.244;6.594;2023-11-22T04:22:48;11.38;;;6.80;;
52432;SDS011;38352;53.244;6.594;2023-11-22T04:25:14;13.80;;;6.85;;
52432;SDS011;38352;53.244;6.594;2023-11-22T04:27:40;14.27;;;7.45;;
52432;SDS011;38352;53.244;6.594;2023-11-22T04:30:07;15.43;;;7.60;;
52432;SDS011;38352;53.244;6.594;2023-11-22T04:32:34;13.35;;;7.03;;
52432;SDS011;38352;53.244;6.594;2023-11-22T04:35:01;11.95;;;5.88;;
52432;SDS011;38352;53.244;6.594;2023-11-22T04:37:29;14.48;;;7.20;;
52432;SDS011;38352;53.244;6.594;2023-11-22T04:40:00;12.45;;;6.93;;
52432;SDS011;38352;53.244;6.594;2023-11-22T04:42:28;13.95;;;7.03;;
52432;SDS011;38352;53.244;6.594;2023-11-22T04:44:54;14.23;;;6.90;;
52432;SDS011;38352;53.244;6.594;2023-11-22T04:47:20;14.25;;;7.38;;
52432;SDS011;38352;53.244;6.594;2023-11-22T04:49:47;12.40;;;6.63;;
52432;SDS011;38352;53.244;6.594;2023-11-22T04:52:13;13.63;;;6.38;;
52432;SDS011;38352;53.244;6.594;2023-11-22T04:54:40;15.80;;;7.10;;
52432;SDS011;38352;53.244;6.594;2023-11-22T04:57:07;14.48;;;7.70;;
52432;SDS011;38352;53.244;6.594;2023-11-22T04:59:33;13.00;;;6.45;;
52432;SDS011;38352;53.244;6.594;2023-11-22T05:01:59;11.80;;;6.95;;
52432;SDS011;38352;53.244;6.594;2023-11-22T05:04:25;13.77;;;7.18;;
52432;SDS011;38352;53.244;6.594;2023-11-22T05:06:52;15.13;;;7.43;;
52432;SDS011;38352;53.244;6.594;2023-11-22T05:09:18;18.63;;;7.82;;
52432;SDS011;38352;53.244;6.594;2023-11-22T05:11:45;16.63;;;8.27;;
52432;SDS011;38352;53.244;6.594;2023-11-22T05:14:11;15.65;;;8.68;;
52432;SDS011;38352;53.244;6.594;2023-11-22T05:16:38;16.98;;;8.40;;
52432;SDS011;38352;53.244;6.594;2023-11-22T05:19:04;15.50;;;8.02;;
52432;SDS011;38352;53.244;6.594;2023-11-22T05:21:31;13.30;;;7.60;;
52432;SDS011;38352;53.244;6.594;2023-11-22T05:23:57;14.07;;;7.00;;
52432;SDS011;38352;53.244;6.594;2023-11-22T05:26:24;14.63;;;7.50;;
52432;SDS011;38352;53.244;6.594;2023-11-22T05:28:50;14.30;;;6.65;;
52432;SDS011;38352;53.244;6.594;2023-11-22T05:31:19;17.23;;;7.57;;
52432;SDS011;38352;53.244;6.594;2023-11-22T05:33:45;14.40;;;7.55;;
52432;SDS011;38352;53.244;6.594;2023-11-22T05:36:12;14.88;;;7.63;;
52432;SDS011;38352;53.244;6.594;2023-11-22T05:38:39;14.05;;;7.72;;
52432;SDS011;38352;53.244;6.594;2023-11-22T05:41:05;16.38;;;7.68;;
52432;SDS011;38352;53.244;6.594;2023-11-22T05:43:31;15.52;;;7.72;;
52432;SDS011;38352;53.244;6.594;2023-11-22T05:46:01;19.95;;;8.15;;
52432;SDS011;38352;53.244;6.594;2023-11-22T05:48:27;13.02;;;6.75;;
52432;SDS011;38352;53.244;6.594;2023-11-22T05:50:53;15.05;;;7.70;;
52432;SDS011;38352;53.244;6.594;2023-11-22T05:53:19;17.17;;;8.68;;
52432;SDS011;38352;53.244;6.594;2023-11-22T05:55:46;17.75;;;9.20;;
52432;SDS011;38352;53.244;6.594;2023-11-22T05:58:13;17.40;;;8.07;;
52432;SDS011;38352;53.244;6.594;2023-11-22T06:00:42;15.30;;;7.90;;
52432;SDS011;38352;53.244;6.594;2023-11-22T06:03:08;18.73;;;9.23;;
52432;SDS011;38352;53.244;6.594;2023-11-22T06:05:35;20.65;;;11.40;;
52432;SDS011;38352;53.244;6.594;2023-11-22T06:08:01;21.90;;;11.20;;
52432;SDS011;38352;53.244;6.594;2023-11-22T06:10:27;22.67;;;10.82;;
52432;SDS011;38352;53.244;6.594;2023-11-22T06:12:53;24.27;;;12.55;;
52432;SDS011;38352;53.244;6.594;2023-11-22T06:15:19;25.35;;;12.93;;
52432;SDS011;38352;53.244;6.594;2023-11-22T06:17:47;26.58;;;12.48;;
52432;SDS011;38352;53.244;6.594;2023-11-22T06:20:13;24.38;;;11.88;;
52432;SDS011;38352;53.244;6.594;2023-11-22T06:22:40;25.85;;;12.52;;
52432;SDS011;38352;53.244;6.594;2023-11-22T06:25:13;25.33;;;11.80;;
52432;SDS011;38352;53.244;6.594;2023-11-22T06:27:40;27.27;;;13.00;;
52432;SDS011;38352;53.244;6.594;2023-11-22T06:30:07;25.13;;;12.40;;
52432;SDS011;38352;53.244;6.594;2023-11-22T06:32:34;26.95;;;11.63;;
52432;SDS011;38352;53.244;6.594;2023-11-22T06:35:00;27.50;;;13.02;;
52432;SDS011;38352;53.244;6.594;2023-11-22T06:37:28;24.80;;;12.65;;
52432;SDS011;38352;53.244;6.594;2023-11-22T06:39:54;24.40;;;13.18;;
52432;SDS011;38352;53.244;6.594;2023-11-22T06:42:22;27.70;;;13.45;;
52432;SDS011;38352;53.244;6.594;2023-11-22T06:44:48;26.67;;;12.48;;
52432;SDS011;38352;53.244;6.594;2023-11-22T06:47:18;27.98;;;14.18;;
52432;SDS011;38352;53.244;6.594;2023-11-22T06:49:44;25.58;;;14.02;;
52432;SDS011;38352;53.244;6.594;2023-11-22T06:52:11;27.75;;;14.10;;
52432;SDS011;38352;53.244;6.594;2023-11-22T06:54:37;31.73;;;14.85;;
52432;SDS011;38352;53.244;6.594;2023-11-22T06:57:03;28.85;;;13.95;;
52432;SDS011;38352;53.244;6.594;2023-11-22T06:59:30;31.65;;;14.32;;
52432;SDS011;38352;53.244;6.594;2023-11-22T07:01:56;28.35;;;14.20;;
52432;SDS011;38352;53.244;6.594;2023-11-22T07:04:22;36.05;;;15.40;;
52432;SDS011;38352;53.244;6.594;2023-11-22T07:06:48;29.02;;;14.43;;
52432;SDS011;38352;53.244;6.594;2023-11-22T07:09:14;30.75;;;14.18;;
52432;SDS011;38352;53.244;6.594;2023-11-22T07:11:41;27.17;;;15.02;;
52432;SDS011;38352;53.244;6.594;2023-11-22T07:14:09;33.38;;;16.40;;
52432;SDS011;38352;53.244;6.594;2023-11-22T07:16:35;30.08;;;14.98;;
52432;SDS011;38352;53.244;6.594;2023-11-22T07:19:03;32.33;;;14.85;;
52432;SDS011;38352;53.244;6.594;2023-11-22T07:21:32;31.33;;;14.90;;
52432;SDS011;38352;53.244;6.594;2023-11-22T07:24:04;29.35;;;14.73;;
52432;SDS011;38352;53.244;6.594;2023-11-22T07:26:32;31.17;;;15.48;;
52432;SDS011;38352;53.244;6.594;2023-11-22T07:28:58;34.25;;;14.10;;
52432;SDS011;38352;53.244;6.594;2023-11-22T07:31:24;33.42;;;14.43;;
52432;SDS011;38352;53.244;6.594;2023-11-22T07:33:50;34.05;;;15.00;;
52432;SDS011;38352;53.244;6.594;2023-11-22T07:36:16;30.92;;;13.63;;
52432;SDS011;38352;53.244;6.594;2023-11-22T07:38:43;29.60;;;14.27;;
52432;SDS011;38352;53.244;6.594;2023-11-22T07:41:10;30.58;;;15.43;;
52432;SDS011;38352;53.244;6.594;2023-11-22T07:43:36;31.15;;;14.30;;
52432;SDS011;38352;53.244;6.594;2023-11-22T07:46:08;29.25;;;15.02;;
52432;SDS011;38352;53.244;6.594;2023-11-22T07:48:38;31.88;;;15.13;;
52432;SDS011;38352;53.244;6.594;2023-11-22T07:51:07;31.67;;;15.15;;
52432;SDS011;38352;53.244;6.594;2023-11-22T07:53:34;34.08;;;15.40;;
52432;SDS011;38352;53.244;6.594;2023-11-22T07:56:01;30.33;;;14.90;;
52432;SDS011;38352;53.244;6.594;2023-11-22T07:58:32;27.55;;;14.32;;
52432;SDS011;38352;53.244;6.594;2023-11-22T08:00:58;28.90;;;14.82;;
52432;SDS011;38352;53.244;6.594;2023-11-22T08:03:25;30.75;;;14.68;;
52432;SDS011;38352;53.244;6.594;2023-11-22T08:05:52;31.15;;;14.63;;
52432;SDS011;38352;53.244;6.594;2023-11-22T08:08:21;32.42;;;14.82;;
52432;SDS011;38352;53.244;6.594;2023-11-22T08:10:48;32.05;;;14.77;;
52432;SDS011;38352;53.244;6.594;2023-11-22T08:13:16;30.23;;;15.00;;
52432;SDS011;38352;53.244;6.594;2023-11-22T08:15:44;33.47;;;15.63;;
52432;SDS011;38352;53.244;6.594;2023-11-22T08:18:12;32.00;;;15.52;;
52432;SDS011;38352;53.244;6.594;2023-11-22T08:20:38;30.25;;;15.40;;
52432;SDS011;38352;53.244;6.594;2023-11-22T08:23:04;33.03;;;14.75;;
52432;SDS011;38352;53.244;6.594;2023-11-22T08:25:31;26.75;;;13.57;;
52432;SDS011;38352;53.244;6.594;2023-11-22T08:27:57;25.67;;;13.73;;
52432;SDS011;38352;53.244;6.594;2023-11-22T08:30:24;29.30;;;14.25;;
52432;SDS011;38352;53.244;6.594;2023-11-22T08:32:50;25.55;;;13.30;;
52432;SDS011;38352;53.244;6.594;2023-11-22T08:35:19;24.60;;;12.23;;
52432;SDS011;38352;53.244;6.594;2023-11-22T08:37:47;28.88;;;13.73;;
52432;SDS011;38352;53.244;6.594;2023-11-22T08:40:15;26.23;;;13.73;;
52432;SDS011;38352;53.244;6.594;2023-11-22T08:42:45;32.30;;;14.60;;
52432;SDS011;38352;53.244;6.594;2023-11-22T08:45:11;26.23;;;13.30;;
52432;SDS011;38352;53.244;6.594;2023-11-22T08:47:41;28.38;;;15.05;;
52432;SDS011;38352;53.244;6.594;2023-11-22T08:50:07;28.05;;;14.00;;
52432;SDS011;38352;53.244;6.594;2023-11-22T08:52:36;28.23;;;12.52;;
52432;SDS011;38352;53.244;6.594;2023-11-22T08:55:03;30.10;;;14.65;;
52432;SDS011;38352;53.244;6.594;2023-11-22T08:57:31;26.23;;;13.15;;
52432;SDS011;38352;53.244;6.594;2023-11-22T08:59:57;27.88;;;13.52;;
52432;SDS011;38352;53.244;6.594;2023-11-22T09:02:26;24.63;;;12.77;;
52432;SDS011;38352;53.244;6.594;2023-11-22T09:04:53;27.00;;;13.80;;
52432;SDS011;38352;53.244;6.594;2023-11-22T09:07:19;25.55;;;13.63;;
52432;SDS011;38352;53.244;6.594;2023-11-22T09:09:47;31.30;;;14.00;;
52432;SDS011;38352;53.244;6.594;2023-11-22T09:12:13;24.80;;;13.30;;
52432;SDS011;38352;53.244;6.594;2023-11-22T09:14:40;25.05;;;12.95;;
52432;SDS011;38352;53.244;6.594;2023-11-22T09:17:07;26.52;;;13.70;;
52432;SDS011;38352;53.244;6.594;2023-11-22T09:19:34;23.75;;;11.32;;
52432;SDS011;38352;53.244;6.594;2023-11-22T09:22:01;21.58;;;11.13;;
52432;SDS011;38352;53.244;6.594;2023-11-22T09:24:27;20.50;;;12.35;;
52432;SDS011;38352;53.244;6.594;2023-11-22T09:26:53;23.75;;;11.63;;
52432;SDS011;38352;53.244;6.594;2023-11-22T09:29:19;20.25;;;11.32;;
52432;SDS011;38352;53.244;6.594;2023-11-22T09:31:45;25.63;;;11.95;;
52432;SDS011;38352;53.244;6.594;2023-11-22T09:34:15;25.70;;;11.95;;
52432;SDS011;38352;53.244;6.594;2023-11-22T09:36:41;19.77;;;11.63;;
52432;SDS011;38352;53.244;6.594;2023-11-22T09:39:07;23.42;;;12.10;;
52432;SDS011;38352;53.244;6.594;2023-11-22T09:41:34;25.73;;;12.25;;
52432;SDS011;38352;53.244;6.594;2023-11-22T09:44:01;24.98;;;12.00;;
52432;SDS011;38352;53.244;6.594;2023-11-22T09:46:28;20.67;;;11.60;;
52432;SDS011;38352;53.244;6.594;2023-11-22T09:48:56;22.40;;;12.15;;
52432;SDS011;38352;53.244;6.594;2023-11-22T09:51:32;24.13;;;12.77;;
52432;SDS011;38352;53.244;6.594;2023-11-22T09:53:59;23.63;;;12.35;;
52432;SDS011;38352;53.244;6.594;2023-11-22T09:56:29;20.67;;;11.27;;
52432;SDS011;38352;53.244;6.594;2023-11-22T09:58:58;21.35;;;11.40;;
52432;SDS011;38352;53.244;6.594;2023-11-22T10:01:25;21.00;;;11.18;;
52432;SDS011;38352;53.244;6.594;2023-11-22T10:04:01;20.98;;;11.05;;
52432;SDS011;38352;53.244;6.594;2023-11-22T10:06:30;23.33;;;11.90;;
52432;SDS011;38352;53.244;6.594;2023-11-22T10:08:59;24.17;;;10.55;;
52432;SDS011;38352;53.244;6.594;2023-11-22T10:11:25;19.80;;;11.05;;
52432;SDS011;38352;53.244;6.594;2023-11-22T10:13:54;23.42;;;11.02;;
52432;SDS011;38352;53.244;6.594;2023-11-22T10:16:22;20.55;;;10.52;;
52432;SDS011;38352;53.244;6.594;2023-11-22T10:18:48;19.48;;;10.98;;
52432;SDS011;38352;53.244;6.594;2023-11-22T10:21:19;21.75;;;10.30;;
52432;SDS011;38352;53.244;6.594;2023-11-22T10:23:49;18.77;;;10.20;;
52432;SDS011;38352;53.244;6.594;2023-11-22T10:26:17;18.50;;;9.80;;
52432;SDS011;38352;53.244;6.594;2023-11-22T10:28:43;18.05;;;10.07;;
52432;SDS011;38352;53.244;6.594;2023-11-22T10:31:09;18.25;;;10.40;;
52432;SDS011;38352;53.244;6.594;2023-11-22T10:33:42;19.02;;;9.55;;
52432;SDS011;38352;53.244;6.594;2023-11-22T10:36:08;21.77;;;10.85;;
52432;SDS011;38352;53.244;6.594;2023-11-22T10:38:35;19.70;;;10.23;;
52432;SDS011;38352;53.244;6.594;2023-11-22T10:41:04;20.48;;;11.23;;
52432;SDS011;38352;53.244;6.594;2023-11-22T10:43:32;18.08;;;9.73;;
52432;SDS011;38352;53.244;6.594;2023-11-22T10:46:01;15.00;;;9.02;;
52432;SDS011;38352;53.244;6.594;2023-11-22T10:48:27;17.90;;;9.68;;
52432;SDS011;38352;53.244;6.594;2023-11-22T10:50:55;17.58;;;10.13;;
52432;SDS011;38352;53.244;6.594;2023-11-22T10:53:25;18.20;;;9.63;;
52432;SDS011;38352;53.244;6.594;2023-11-22T10:55:53;18.60;;;9.70;;
52432;SDS011;38352;53.244;6.594;2023-11-22T10:58:20;14.50;;;8.25;;
52432;SDS011;38352;53.244;6.594;2023-11-22T11:00:46;17.58;;;8.75;;
52432;SDS011;38352;53.244;6.594;2023-11-22T11:03:17;14.50;;;8.18;;
52432;SDS011;38352;53.244;6.594;2023-11-22T11:05:57;12.25;;;7.43;;
52432;SDS011;38352;53.244;6.594;2023-11-22T11:08:25;13.07;;;8.10;;
52432;SDS011;38352;53.244;6.594;2023-11-22T11:10:52;16.35;;;7.85;;
52432;SDS011;38352;53.244;6.594;2023-11-22T11:13:22;12.48;;;7.25;;
52432;SDS011;38352;53.244;6.594;2023-11-22T11:15:52;13.15;;;7.40;;
52432;SDS011;38352;53.244;6.594;2023-11-22T11:18:19;13.35;;;7.60;;
52432;SDS011;38352;53.244;6.594;2023-11-22T11:20:49;11.30;;;6.50;;
52432;SDS011;38352;53.244;6.594;2023-11-22T11:23:16;10.90;;;6.10;;
52432;SDS011;38352;53.244;6.594;2023-11-22T11:25:42;14.68;;;7.60;;
52432;SDS011;38352;53.244;6.594;2023-11-22T11:28:11;11.55;;;6.22;;
52432;SDS011;38352;53.244;6.594;2023-11-22T11:30:48;12.50;;;6.35;;
52432;SDS011;38352;53.244;6.594;2023-11-22T11:33:33;11.18;;;5.35;;
52432;SDS011;38352;53.244;6.594;2023-11-22T11:36:03;11.05;;;5.63;;
52432;SDS011;38352;53.244;6.594;2023-11-22T11:38:31;13.95;;;6.05;;
52432;SDS011;38352;53.244;6.594;2023-11-22T11:41:06;10.68;;;5.32;;
52432;SDS011;38352;53.244;6.594;2023-11-22T11:43:39;10.65;;;6.20;;
52432;SDS011;38352;53.244;6.594;2023-11-22T11:46:08;9.48;;;5.47;;
52432;SDS011;38352;53.244;6.594;2023-11-22T11:48:34;11.80;;;6.15;;
52432;SDS011;38352;53.244;6.594;2023-11-22T11:51:00;9.98;;;5.63;;
52432;SDS011;38352;53.244;6.594;2023-11-22T11:53:27;10.23;;;5.55;;
52432;SDS011;38352;53.244;6.594;2023-11-22T11:55:53;13.88;;;5.35;;
52432;SDS011;38352;53.244;6.594;2023-11-22T11:58:20;11.65;;;5.57;;
52432;SDS011;38352;53.244;6.594;2023-11-22T12:00:51;9.88;;;5.32;;
52432;SDS011;38352;53.244;6.594;2023-11-22T12:03:19;10.32;;;5.80;;
52432;SDS011;38352;53.244;6.594;2023-11-22T12:05:47;11.63;;;5.63;;
52432;SDS011;38352;53.244;6.594;2023-11-22T12:08:16;9.63;;;5.63;;
52432;SDS011;38352;53.244;6.594;2023-11-22T12:10:42;14.80;;;6.10;;
52432;SDS011;38352;53.244;6.594;2023-11-22T12:13:13;9.68;;;5.47;;
52432;SDS011;38352;53.244;6.594;2023-11-22T12:15:39;10.52;;;5.22;;
52432;SDS011;38352;53.244;6.594;2023-11-22T12:18:07;10.65;;;4.95;;
52432;SDS011;38352;53.244;6.594;2023-11-22T12:20:33;10.02;;;5.43;;
52432;SDS011;38352;53.244;6.594;2023-11-22T12:23:01;9.35;;;5.47;;
52432;SDS011;38352;53.244;6.594;2023-11-22T12:25:27;10.00;;;5.20;;
52432;SDS011;38352;53.244;6.594;2023-11-22T12:27:54;11.27;;;5.90;;
52432;SDS011;38352;53.244;6.594;2023-11-22T12:32:57;12.70;;;5.78;;
52432;SDS011;38352;53.244;6.594;2023-11-22T12:35:23;10.35;;;5.88;;
52432;SDS011;38352;53.244;6.594;2023-11-22T12:37:49;10.60;;;5.80;;
52432;SDS011;38352;53.244;6.594;2023-11-22T12:40:19;11.02;;;5.53;;
52432;SDS011;38352;53.244;6.594;2023-11-22T12:42:52;11.25;;;5.80;;
52432;SDS011;38352;53.244;6.594;2023-11-22T12:45:19;10.90;;;5.85;;
52432;SDS011;38352;53.244;6.594;2023-11-22T12:47:45;9.57;;;5.80;;
52432;SDS011;38352;53.244;6.594;2023-11-22T12:50:29;11.95;;;6.72;;
52432;SDS011;38352;53.244;6.594;2023-11-22T12:52:56;13.38;;;5.68;;
52432;SDS011;38352;53.244;6.594;2023-11-22T12:55:22;13.68;;;6.32;;
52432;SDS011;38352;53.244;6.594;2023-11-22T12:58:01;13.00;;;6.50;;
52432;SDS011;38352;53.244;6.594;2023-11-22T13:00:29;11.30;;;6.28;;
52432;SDS011;38352;53.244;6.594;2023-11-22T13:02:55;9.75;;;5.43;;
52432;SDS011;38352;53.244;6.594;2023-11-22T13:05:22;9.38;;;5.25;;
52432;SDS011;38352;53.244;6.594;2023-11-22T13:07:49;10.48;;;5.85;;
52432;SDS011;38352;53.244;6.594;2023-11-22T13:10:15;12.15;;;6.10;;
52432;SDS011;38352;53.244;6.594;2023-11-22T13:12:44;11.40;;;6.10;;
52432;SDS011;38352;53.244;6.594;2023-11-22T13:15:11;14.05;;;6.15;;
52432;SDS011;38352;53.244;6.594;2023-11-22T13:17:40;12.25;;;6.55;;
52432;SDS011;38352;53.244;6.594;2023-11-22T13:20:07;11.55;;;6.15;;
52432;SDS011;38352;53.244;6.594;2023-11-22T13:22:40;12.63;;;6.40;;
52432;SDS011;38352;53.244;6.594;2023-11-22T13:25:09;10.43;;;5.47;;
52432;SDS011;38352;53.244;6.594;2023-11-22T13:27:42;9.15;;;5.60;;
52432;SDS011;38352;53.244;6.594;2023-11-22T13:30:08;11.23;;;6.30;;
52432;SDS011;38352;53.244;6.594;2023-11-22T13:32:34;11.02;;;5.97;;
52432;SDS011;38352;53.244;6.594;2023-11-22T13:35:00;11.10;;;6.07;;
52432;SDS011;38352;53.244;6.594;2023-11-22T13:37:30;10.23;;;5.72;;
52432;SDS011;38352;53.244;6.594;2023-11-22T13:39:56;11.23;;;6.50;;
52432;SDS011;38352;53.244;6.594;2023-11-22T13:42:22;11.93;;;6.50;;
52432;SDS011;38352;53.244;6.594;2023-11-22T13:44:49;11.27;;;5.97;;
52432;SDS011;38352;53.244;6.594;2023-11-22T13:47:15;14.93;;;6.20;;
52432;SDS011;38352;53.244;6.594;2023-11-22T13:49:41;12.02;;;6.60;;
52432;SDS011;38352;53.244;6.594;2023-11-22T13:52:08;10.48;;;6.05;;
52432;SDS011;38352;53.244;6.594;2023-11-22T13:54:34;13.90;;;6.78;;
52432;SDS011;38352;53.244;6.594;2023-11-22T13:57:06;12.35;;;6.65;;
52432;SDS011;38352;53.244;6.594;2023-11-22T13:59:32;12.57;;;6.60;;
52432;SDS011;38352;53.244;6.594;2023-11-22T14:01:59;13.88;;;6.30;;
52432;SDS011;38352;53.244;6.594;2023-11-22T14:04:26;11.88;;;6.68;;
52432;SDS011;38352;53.244;6.594;2023-11-22T14:06:52;10.65;;;6.28;;
52432;SDS011;38352;53.244;6.594;2023-11-22T14:09:18;10.68;;;6.30;;
52432;SDS011;38352;53.244;6.594;2023-11-22T14:11:44;12.65;;;7.15;;
52432;SDS011;38352;53.244;6.594;2023-11-22T14:14:11;13.35;;;6.50;;
52432;SDS011;38352;53.244;6.594;2023-11-22T14:16:37;11.75;;;6.15;;
52432;SDS011;38352;53.244;6.594;2023-11-22T14:19:07;14.13;;;6.63;;
52432;SDS011;38352;53.244;6.594;2023-11-22T14:21:33;10.63;;;6.50;;
52432;SDS011;38352;53.244;6.594;2023-11-22T14:24:00;14.05;;;6.72;;
52432;SDS011;38352;53.244;6.594;2023-11-22T14:26:26;13.18;;;6.93;;
52432;SDS011;38352;53.244;6.594;2023-11-22T14:28:52;13.90;;;6.95;;
52432;SDS011;38352;53.244;6.594;2023-11-22T14:31:19;15.43;;;7.35;;
52432;SDS011;38352;53.244;6.594;2023-11-22T14:33:45;13.95;;;7.05;;
52432;SDS011;38352;53.244;6.594;2023-11-22T14:36:11;12.88;;;7.07;;